createdAt,value
2018-05-18T00:00:45.897Z,1017.53
2018-05-18T00:01:55.872Z,1017.56
2018-05-18T00:03:05.628Z,1017.53
2018-05-18T00:04:15.102Z,1017.53
2018-05-18T00:05:24.816Z,1017.5
2018-05-18T00:06:34.319Z,1017.52
2018-05-18T00:07:43.487Z,1017.51
2018-05-18T00:08:52.954Z,1017.52
2018-05-18T00:10:02.385Z,1017.53
2018-05-18T00:11:12.130Z,1017.52
2018-05-18T00:12:21.587Z,1017.49
2018-05-18T00:13:30.503Z,1017.47
2018-05-18T00:14:40.443Z,1017.47
2018-05-18T00:15:49.867Z,1017.42
2018-05-18T00:16:58.579Z,1017.48
2018-05-18T00:18:07.748Z,1017.45
2018-05-18T00:19:17.176Z,1017.46
2018-05-18T00:20:26.350Z,1017.45
2018-05-18T00:21:35.760Z,1017.42
2018-05-18T00:22:44.692Z,1017.42
2018-05-18T00:23:53.906Z,1017.4
2018-05-18T00:25:03.325Z,1017.44
2018-05-18T00:26:12.761Z,1017.41
2018-05-18T00:27:21.945Z,1017.43
2018-05-18T00:28:31.155Z,1017.45
2018-05-18T00:29:41.105Z,1017.43
2018-05-18T00:30:50.576Z,1017.45
2018-05-18T00:32:00.245Z,1017.45
2018-05-18T00:33:09.748Z,1017.39
2018-05-18T00:34:19.757Z,1017.42
2018-05-18T00:35:28.911Z,1017.44
2018-05-18T00:36:38.587Z,1017.45
2018-05-18T00:37:48.296Z,1017.46
2018-05-18T00:38:57.972Z,1017.46
2018-05-18T00:40:07.447Z,1017.46
2018-05-18T00:41:16.639Z,1017.42
2018-05-18T00:42:26.358Z,1017.43
2018-05-18T00:43:36.053Z,1017.44
2018-05-18T00:44:45.999Z,1017.42
2018-05-18T00:45:55.202Z,1017.48
2018-05-18T00:47:04.379Z,1017.45
2018-05-18T00:48:14.067Z,1017.45
2018-05-18T00:49:23.513Z,1017.5
2018-05-18T00:50:33.219Z,1017.4
2018-05-18T00:51:42.891Z,1017.44
2018-05-18T00:52:52.110Z,1017.5
2018-05-18T00:54:01.561Z,1017.44
2018-05-18T00:55:11.264Z,1017.41
2018-05-18T00:56:20.943Z,1017.44
2018-05-18T00:57:30.655Z,1017.45
2018-05-18T00:58:40.074Z,1017.48
2018-05-18T00:59:49.250Z,1017.47
2018-05-18T01:00:58.942Z,1017.45
2018-05-18T01:02:07.857Z,1017.46
2018-05-18T01:03:16.793Z,1017.48
2018-05-18T01:04:26.517Z,1017.48
2018-05-18T01:05:35.960Z,1017.49
2018-05-18T01:06:45.407Z,1017.47
2018-05-18T01:07:54.835Z,1017.47
2018-05-18T01:09:04.569Z,1017.45
2018-05-18T01:10:14.023Z,1017.45
2018-05-18T01:11:22.994Z,1017.48
2018-05-18T01:12:32.235Z,1017.46
2018-05-18T01:13:42.189Z,1017.48
2018-05-18T01:14:52.044Z,1017.44
2018-05-18T01:16:01.496Z,1017.47
2018-05-18T01:17:10.941Z,1017.43
2018-05-18T01:18:20.631Z,1017.44
2018-05-18T01:19:30.583Z,1017.44
2018-05-18T01:20:40.077Z,1017.41
2018-05-18T01:21:49.280Z,1017.44
2018-05-18T01:22:58.705Z,1017.46
2018-05-18T01:24:08.410Z,1017.42
2018-05-18T01:25:17.834Z,1017.44
2018-05-18T01:26:27.097Z,1017.45
2018-05-18T01:27:36.823Z,1017.44
2018-05-18T01:28:46.228Z,1017.43
2018-05-18T01:29:55.654Z,1017.42
2018-05-18T01:31:05.081Z,1017.42
2018-05-18T01:32:14.339Z,1017.38
2018-05-18T01:33:23.763Z,1017.4
2018-05-18T01:34:32.933Z,1017.35
2018-05-18T01:35:41.847Z,1017.35
2018-05-18T01:36:51.301Z,1017.38
2018-05-18T01:38:00.345Z,1017.36
2018-05-18T01:39:09.358Z,1017.37
2018-05-18T01:40:18.559Z,1017.37
2018-05-18T01:41:27.729Z,1017.35
2018-05-18T01:42:36.909Z,1017.35
2018-05-18T01:43:46.592Z,1017.38
2018-05-18T01:44:56.277Z,1017.35
2018-05-18T01:46:05.978Z,1017.34
2018-05-18T01:47:15.406Z,1017.34
2018-05-18T01:48:24.848Z,1017.32
2018-05-18T01:49:34.518Z,1017.28
2018-05-18T01:50:43.943Z,1017.31
2018-05-18T01:51:53.355Z,1017.31
2018-05-18T01:53:03.036Z,1017.31
2018-05-18T01:54:12.216Z,1017.31
2018-05-18T01:55:21.662Z,1017.3
2018-05-18T01:56:31.345Z,1017.32
2018-05-18T01:57:40.513Z,1017.27
2018-05-18T01:58:49.713Z,1017.3
2018-05-18T01:59:59.646Z,1017.31
2018-05-18T02:01:08.854Z,1017.31
2018-05-18T02:02:18.296Z,1017.32
2018-05-18T02:03:28.031Z,1017.31
2018-05-18T02:04:37.981Z,1017.31
2018-05-18T02:05:47.950Z,1017.29
2018-05-18T02:06:57.646Z,1017.3
2018-05-18T02:08:07.094Z,1017.33
2018-05-18T02:09:16.519Z,1017.32
2018-05-18T02:10:25.956Z,1017.3
2018-05-18T02:11:35.381Z,1017.34
2018-05-18T02:12:44.572Z,1017.32
2018-05-18T02:13:53.765Z,1017.33
2018-05-18T02:15:03.197Z,1017.33
2018-05-18T02:16:12.637Z,1017.37
2018-05-18T02:17:22.041Z,1017.36
2018-05-18T02:18:31.803Z,1017.33
2018-05-18T02:19:41.207Z,1017.37
2018-05-18T02:20:51.238Z,1017.36
2018-05-18T02:22:00.677Z,1017.34
2018-05-18T02:23:10.372Z,1017.36
2018-05-18T02:24:19.538Z,1017.33
2018-05-18T02:25:28.966Z,1017.34
2018-05-18T02:26:38.125Z,1017.34
2018-05-18T02:27:47.840Z,1017.32
2018-05-18T02:28:57.023Z,1017.34
2018-05-18T02:30:06.467Z,1017.35
2018-05-18T02:31:15.642Z,1017.36
2018-05-18T02:32:25.322Z,1017.38
2018-05-18T02:33:34.762Z,1017.37
2018-05-18T02:34:44.787Z,1017.38
2018-05-18T02:35:54.016Z,1017.33
2018-05-18T02:37:04.032Z,1017.37
2018-05-18T02:38:13.506Z,1017.37
2018-05-18T02:39:22.943Z,1017.37
2018-05-18T02:40:32.374Z,1017.36
2018-05-18T02:41:41.876Z,1017.37
2018-05-18T02:42:50.538Z,1017.38
2018-05-18T02:44:00.263Z,1017.39
2018-05-18T02:45:09.192Z,1017.42
2018-05-18T02:46:18.627Z,1017.42
2018-05-18T02:47:28.396Z,1017.39
2018-05-18T02:48:38.362Z,1017.44
2018-05-18T02:49:48.089Z,1017.44
2018-05-18T02:50:57.794Z,1017.46
2018-05-18T02:52:07.239Z,1017.47
2018-05-18T02:53:17.063Z,1017.44
2018-05-18T02:54:25.995Z,1017.46
2018-05-18T02:55:35.699Z,1017.46
2018-05-18T02:56:45.660Z,1017.45
2018-05-18T02:57:55.631Z,1017.43
2018-05-18T02:59:04.822Z,1017.44
2018-05-18T03:00:14.609Z,1017.46
2018-05-18T03:01:23.540Z,1017.42
2018-05-18T03:02:33.228Z,1017.41
2018-05-18T03:03:42.493Z,1017.43
2018-05-18T03:04:52.215Z,1017.43
2018-05-18T03:06:01.437Z,1017.4
2018-05-18T03:07:11.131Z,1017.41
2018-05-18T03:08:20.325Z,1017.47
2018-05-18T03:09:29.801Z,1017.38
2018-05-18T03:10:39.761Z,1017.45
2018-05-18T03:11:48.418Z,1017.46
2018-05-18T03:12:57.864Z,1017.41
2018-05-18T03:14:07.811Z,1017.41
2018-05-18T03:15:17.058Z,1017.4
2018-05-18T03:16:26.475Z,1017.4
2018-05-18T03:17:35.886Z,1017.44
2018-05-18T03:18:44.809Z,1017.44
2018-05-18T03:19:53.984Z,1017.39
2018-05-18T03:21:03.723Z,1017.36
2018-05-18T03:22:13.920Z,1017.39
2018-05-18T03:23:23.417Z,1017.35
2018-05-18T03:24:32.770Z,1017.39
2018-05-18T03:25:41.920Z,1017.42
2018-05-18T03:26:51.140Z,1017.41
2018-05-18T03:28:00.093Z,1017.42
2018-05-18T03:29:10.033Z,1017.4
2018-05-18T03:30:19.465Z,1017.41
2018-05-18T03:31:28.887Z,1017.4
2018-05-18T03:32:38.061Z,1017.41
2018-05-18T03:33:47.206Z,1017.41
2018-05-18T03:34:56.691Z,1017.44
2018-05-18T03:36:06.293Z,1017.42
2018-05-18T03:37:15.971Z,1017.44
2018-05-18T03:38:25.392Z,1017.47
2018-05-18T03:39:35.089Z,1017.46
2018-05-18T03:40:43.991Z,1017.46
2018-05-18T03:41:53.679Z,1017.49
2018-05-18T03:43:02.619Z,1017.46
2018-05-18T03:44:12.053Z,1017.47
2018-05-18T03:45:21.507Z,1017.49
2018-05-18T03:46:31.189Z,1017.49
2018-05-18T03:47:40.645Z,1017.49
2018-05-18T03:48:50.594Z,1017.47
2018-05-18T03:50:00.045Z,1017.51
2018-05-18T03:51:09.288Z,1017.49
2018-05-18T03:52:18.728Z,1017.5
2018-05-18T03:53:27.640Z,1017.5
2018-05-18T03:54:37.107Z,1017.51
2018-05-18T03:55:46.532Z,1017.49
2018-05-18T03:56:56.217Z,1017.46
2018-05-18T03:58:05.391Z,1017.47
2018-05-18T03:59:14.949Z,1017.47
2018-05-18T04:00:24.634Z,1017.45
2018-05-18T04:01:34.336Z,1017.5
2018-05-18T04:02:43.792Z,1017.45
2018-05-18T04:03:53.241Z,1017.49
2018-05-18T04:05:03.205Z,1017.5
2018-05-18T04:06:12.380Z,1017.51
2018-05-18T04:07:21.633Z,1017.53
2018-05-18T04:08:31.091Z,1017.55
2018-05-18T04:09:40.790Z,1017.56
2018-05-18T04:10:49.964Z,1017.61
2018-05-18T04:11:59.929Z,1017.6
2018-05-18T04:13:09.336Z,1017.64
2018-05-18T04:14:18.846Z,1017.62
2018-05-18T04:15:28.030Z,1017.62
2018-05-18T04:16:37.703Z,1017.69
2018-05-18T04:17:47.165Z,1017.66
2018-05-18T04:18:56.093Z,1017.68
2018-05-18T04:20:04.996Z,1017.7
2018-05-18T04:21:13.927Z,1017.7
2018-05-18T04:22:23.097Z,1017.7
2018-05-18T04:23:32.524Z,1017.71
2018-05-18T04:24:42.250Z,1017.69
2018-05-18T04:25:51.962Z,1017.7
2018-05-18T04:27:01.940Z,1017.73
2018-05-18T04:28:11.411Z,1017.75
2018-05-18T04:29:21.113Z,1017.7
2018-05-18T04:30:30.337Z,1017.72
2018-05-18T04:31:39.866Z,1017.73
2018-05-18T04:32:48.922Z,1017.74
2018-05-18T04:33:58.405Z,1017.74
2018-05-18T04:35:07.601Z,1017.73
2018-05-18T04:36:16.794Z,1017.75
2018-05-18T04:37:26.484Z,1017.76
2018-05-18T04:38:35.921Z,1017.79
2018-05-18T04:39:45.359Z,1017.77
2018-05-18T04:40:54.535Z,1017.77
2018-05-18T04:42:03.707Z,1017.76
2018-05-18T04:43:13.205Z,1017.77
2018-05-18T04:44:23.024Z,1017.76
2018-05-18T04:45:32.702Z,1017.79
2018-05-18T04:46:42.156Z,1017.78
2018-05-18T04:47:51.917Z,1017.78
2018-05-18T04:49:01.325Z,1017.78
2018-05-18T04:50:11.063Z,1017.78
2018-05-18T04:51:20.251Z,1017.82
2018-05-18T04:52:29.443Z,1017.79
2018-05-18T04:53:38.881Z,1017.88
2018-05-18T04:54:48.553Z,1017.85
2018-05-18T04:55:57.983Z,1017.82
2018-05-18T04:57:07.413Z,1017.79
2018-05-18T04:58:17.405Z,1017.78
2018-05-18T04:59:26.832Z,1017.8
2018-05-18T05:00:35.812Z,1017.81
2018-05-18T05:01:45.493Z,1017.87
2018-05-18T05:02:54.460Z,1017.87
2018-05-18T05:04:04.136Z,1017.87
2018-05-18T05:05:14.085Z,1017.89
2018-05-18T05:06:23.511Z,1017.85
2018-05-18T05:07:32.944Z,1017.86
2018-05-18T05:08:42.111Z,1017.91
2018-05-18T05:09:51.284Z,1017.92
2018-05-18T05:11:00.451Z,1017.93
2018-05-18T05:12:10.194Z,1017.96
2018-05-18T05:13:19.351Z,1017.97
2018-05-18T05:14:29.020Z,1017.94
2018-05-18T05:15:38.484Z,1017.99
2018-05-18T05:16:47.675Z,1017.98
2018-05-18T05:17:57.495Z,1017.95
2018-05-18T05:19:07.447Z,1017.98
2018-05-18T05:20:17.252Z,1017.98
2018-05-18T05:21:26.987Z,1017.97
2018-05-18T05:22:55.878Z,1018.02
2018-05-18T05:24:05.093Z,1018.01
2018-05-18T05:25:14.282Z,1018.01
2018-05-18T05:26:23.458Z,1017.99
2018-05-18T05:27:32.887Z,1018.01
2018-05-18T05:28:42.071Z,1017.99
2018-05-18T05:29:51.508Z,1018.02
2018-05-18T05:31:01.232Z,1018.09
2018-05-18T05:32:10.730Z,1018.08
2018-05-18T05:33:20.427Z,1018.05
2018-05-18T05:34:29.437Z,1018.03
2018-05-18T05:35:38.907Z,1018
2018-05-18T05:36:48.715Z,1018.05
2018-05-18T05:37:58.073Z,1018.06
2018-05-18T05:39:07.523Z,1018.05
2018-05-18T05:40:17.079Z,1018.06
2018-05-18T05:41:27.016Z,1018.06
2018-05-18T05:42:36.845Z,1018.05
2018-05-18T05:43:46.301Z,1018.05
2018-05-18T05:44:55.742Z,1018.08
2018-05-18T05:46:05.737Z,1018.06
2018-05-18T05:47:15.169Z,1018.13
2018-05-18T05:48:25.059Z,1018.09
2018-05-18T05:49:34.253Z,1018.11
2018-05-18T05:50:43.429Z,1018.08
2018-05-18T05:51:52.585Z,1018.09
2018-05-18T05:53:02.579Z,1018.12
2018-05-18T05:54:11.762Z,1018.13
2018-05-18T05:55:21.195Z,1018.12
2018-05-18T05:56:30.878Z,1018.13
2018-05-18T05:57:40.824Z,1018.13
2018-05-18T05:58:50.280Z,1018.15
2018-05-18T05:59:59.966Z,1018.15
2018-05-18T06:01:09.733Z,1018.14
2018-05-18T06:02:19.424Z,1018.14
2018-05-18T06:03:29.114Z,1018.14
2018-05-18T06:04:38.564Z,1018.16
2018-05-18T06:05:48.032Z,1018.16
2018-05-18T06:06:57.482Z,1018.14
2018-05-18T06:08:06.912Z,1018.15
2018-05-18T06:09:16.604Z,1018.15
2018-05-18T06:10:25.774Z,1018.13
2018-05-18T06:11:35.273Z,1018.15
2018-05-18T06:12:44.212Z,1018.16
2018-05-18T06:13:53.359Z,1018.19
2018-05-18T06:15:02.291Z,1018.17
2018-05-18T06:16:12.290Z,1018.18
2018-05-18T06:17:21.730Z,1018.19
2018-05-18T06:18:30.892Z,1018.19
2018-05-18T06:19:40.343Z,1018.17
2018-05-18T06:20:50.023Z,1018.18
2018-05-18T06:21:59.709Z,1018.19
2018-05-18T06:23:08.628Z,1018.16
2018-05-18T06:24:18.082Z,1018.21
2018-05-18T06:25:27.512Z,1018.21
2018-05-18T06:26:36.962Z,1018.24
2018-05-18T06:27:46.157Z,1018.26
2018-05-18T06:28:55.588Z,1018.25
2018-05-18T06:30:05.294Z,1018.23
2018-05-18T06:31:14.237Z,1018.22
2018-05-18T06:32:24.079Z,1018.23
2018-05-18T06:33:33.761Z,1018.27
2018-05-18T06:34:42.748Z,1018.31
2018-05-18T06:35:52.823Z,1018.3
2018-05-18T06:37:01.749Z,1018.27
2018-05-18T06:38:11.035Z,1018.31
2018-05-18T06:39:20.739Z,1018.31
2018-05-18T06:40:29.965Z,1018.3
2018-05-18T06:41:39.918Z,1018.29
2018-05-18T06:42:48.959Z,1018.3
2018-05-18T06:43:58.452Z,1018.34
2018-05-18T06:45:07.932Z,1018.35
2018-05-18T06:46:17.095Z,1018.35
2018-05-18T06:47:27.044Z,1018.33
2018-05-18T06:48:35.731Z,1018.37
2018-05-18T06:49:45.204Z,1018.37
2018-05-18T06:50:54.700Z,1018.4
2018-05-18T06:52:03.932Z,1018.4
2018-05-18T06:53:12.862Z,1018.35
2018-05-18T06:54:22.099Z,1018.38
2018-05-18T06:55:31.810Z,1018.39
2018-05-18T06:56:40.720Z,1018.4
2018-05-18T06:57:50.401Z,1018.38
2018-05-18T06:58:59.889Z,1018.4
2018-05-18T07:00:09.054Z,1018.4
2018-05-18T07:01:18.504Z,1018.44
2018-05-18T07:02:28.219Z,1018.44
2018-05-18T07:03:37.656Z,1018.48
2018-05-18T07:04:46.594Z,1018.44
2018-05-18T07:05:56.017Z,1018.46
2018-05-18T07:07:05.180Z,1018.49
2018-05-18T07:08:14.368Z,1018.46
2018-05-18T07:09:23.567Z,1018.44
2018-05-18T07:10:33.631Z,1018.44
2018-05-18T07:11:43.757Z,1018.46
2018-05-18T07:12:53.243Z,1018.48
2018-05-18T07:14:02.508Z,1018.52
2018-05-18T07:15:12.205Z,1018.49
2018-05-18T07:16:21.695Z,1018.45
2018-05-18T07:17:31.943Z,1018.46
2018-05-18T07:18:41.361Z,1018.51
2018-05-18T07:19:51.097Z,1018.5
2018-05-18T07:21:00.539Z,1018.51
2018-05-18T07:22:09.999Z,1018.5
2018-05-18T07:23:19.182Z,1018.49
2018-05-18T07:24:28.365Z,1018.49
2018-05-18T07:25:37.279Z,1018.52
2018-05-18T07:26:46.966Z,1018.51
2018-05-18T07:27:56.685Z,1018.48
2018-05-18T07:29:05.855Z,1018.49
2018-05-18T07:30:15.304Z,1018.5
2018-05-18T07:31:24.797Z,1018.55
2018-05-18T07:32:34.514Z,1018.51
2018-05-18T07:33:43.932Z,1018.57
2018-05-18T07:34:53.365Z,1018.53
2018-05-18T07:36:02.262Z,1018.53
2018-05-18T07:37:11.910Z,1018.48
2018-05-18T07:38:21.322Z,1018.49
2018-05-18T07:39:31.005Z,1018.56
2018-05-18T07:40:40.433Z,1018.57
2018-05-18T07:41:49.638Z,1018.57
2018-05-18T07:42:59.065Z,1018.56
2018-05-18T07:44:09.016Z,1018.56
2018-05-18T07:45:18.707Z,1018.57
2018-05-18T07:46:27.871Z,1018.6
2018-05-18T07:47:37.169Z,1018.55
2018-05-18T07:48:46.080Z,1018.57
2018-05-18T07:49:55.295Z,1018.6
2018-05-18T07:51:05.170Z,1018.59
2018-05-18T07:52:14.743Z,1018.55
2018-05-18T07:53:24.282Z,1018.57
2018-05-18T07:54:33.969Z,1018.56
2018-05-18T07:55:43.919Z,1018.57
2018-05-18T07:56:53.095Z,1018.57
2018-05-18T07:58:02.555Z,1018.55
2018-05-18T07:59:11.739Z,1018.57
2018-05-18T08:00:21.181Z,1018.55
2018-05-18T08:01:30.378Z,1018.59
2018-05-18T08:02:40.136Z,1018.61
2018-05-18T08:03:49.030Z,1018.61
2018-05-18T08:04:58.727Z,1018.6
2018-05-18T08:06:08.138Z,1018.56
2018-05-18T08:07:17.836Z,1018.61
2018-05-18T08:08:27.183Z,1018.61
2018-05-18T08:09:37.131Z,1018.62
2018-05-18T08:10:46.811Z,1018.59
2018-05-18T08:11:55.989Z,1018.62
2018-05-18T08:13:05.667Z,1018.6
2018-05-18T08:14:15.466Z,1018.63
2018-05-18T08:15:24.930Z,1018.64
2018-05-18T08:16:33.893Z,1018.62
2018-05-18T08:17:43.678Z,1018.56
2018-05-18T08:18:52.648Z,1018.54
2018-05-18T08:20:03.175Z,1018.55
2018-05-18T08:21:12.696Z,1018.53
2018-05-18T08:22:22.408Z,1018.53
2018-05-18T08:23:32.270Z,1018.57
2018-05-18T08:24:41.218Z,1018.57
2018-05-18T08:25:51.063Z,1018.55
2018-05-18T08:27:00.669Z,1018.55
2018-05-18T08:28:10.760Z,1018.58
2018-05-18T08:29:20.204Z,1018.51
2018-05-18T08:30:29.958Z,1018.53
2018-05-18T08:31:38.968Z,1018.52
2018-05-18T08:32:48.720Z,1018.48
2018-05-18T08:33:58.184Z,1018.47
2018-05-18T08:35:07.863Z,1018.51
2018-05-18T08:36:17.573Z,1018.46
2018-05-18T08:37:27.286Z,1018.52
2018-05-18T08:38:36.714Z,1018.53
2018-05-18T08:39:45.377Z,1018.53
2018-05-18T08:40:55.082Z,1018.54
2018-05-18T08:42:04.815Z,1018.51
2018-05-18T08:43:14.233Z,1018.46
2018-05-18T08:44:23.800Z,1018.52
2018-05-18T08:45:33.230Z,1018.54
2018-05-18T08:46:42.448Z,1018.5
2018-05-18T08:47:51.890Z,1018.52
2018-05-18T08:49:01.564Z,1018.53
2018-05-18T08:50:11.015Z,1018.57
2018-05-18T08:51:20.844Z,1018.57
2018-05-18T08:52:30.269Z,1018.53
2018-05-18T08:53:39.729Z,1018.55
2018-05-18T08:54:48.643Z,1018.55
2018-05-18T08:55:57.582Z,1018.58
2018-05-18T08:57:07.299Z,1018.57
2018-05-18T08:58:17.286Z,1018.56
2018-05-18T08:59:26.996Z,1018.56
2018-05-18T09:00:36.450Z,1018.53
2018-05-18T09:01:46.075Z,1018.52
2018-05-18T09:02:55.546Z,1018.5
2018-05-18T09:04:05.017Z,1018.46
2018-05-18T09:05:14.210Z,1018.46
2018-05-18T09:06:23.926Z,1018.46
2018-05-18T09:07:33.113Z,1018.53
2018-05-18T09:08:42.799Z,1018.48
2018-05-18T09:09:52.284Z,1018.5
2018-05-18T09:11:01.989Z,1018.5
2018-05-18T09:12:11.522Z,1018.49
2018-05-18T09:13:21.000Z,1018.44
2018-05-18T09:14:30.446Z,1018.42
2018-05-18T09:15:39.930Z,1018.41
2018-05-18T09:16:49.765Z,1018.4
2018-05-18T09:17:59.458Z,1018.4
2018-05-18T09:19:08.940Z,1018.45
2018-05-18T09:20:18.919Z,1018.45
2018-05-18T09:21:28.097Z,1018.44
2018-05-18T09:22:37.320Z,1018.43
2018-05-18T09:23:46.488Z,1018.43
2018-05-18T09:24:55.685Z,1018.44
2018-05-18T09:26:04.935Z,1018.43
2018-05-18T09:27:13.850Z,1018.46
2018-05-18T09:28:23.046Z,1018.46
2018-05-18T09:29:32.244Z,1018.42
2018-05-18T09:30:41.724Z,1018.4
2018-05-18T09:31:51.427Z,1018.52
2018-05-18T09:33:00.681Z,1018.47
2018-05-18T09:34:10.554Z,1018.49
2018-05-18T09:35:20.650Z,1018.4
2018-05-18T09:36:30.167Z,1018.4
2018-05-18T09:37:39.996Z,1018.45
2018-05-18T09:38:49.476Z,1018.41
2018-05-18T09:39:58.791Z,1018.46
2018-05-18T09:41:08.011Z,1018.42
2018-05-18T09:42:17.852Z,1018.4
2018-05-18T09:43:27.658Z,1018.4
2018-05-18T09:44:37.488Z,1018.39
2018-05-18T09:45:46.183Z,1018.41
2018-05-18T09:46:55.692Z,1018.4
2018-05-18T09:48:05.812Z,1018.36
2018-05-18T09:49:15.112Z,1018.41
2018-05-18T09:50:24.595Z,1018.42
2018-05-18T09:51:33.568Z,1018.44
2018-05-18T09:52:43.091Z,1018.41
2018-05-18T09:53:52.590Z,1018.49
2018-05-18T09:55:02.050Z,1018.43
2018-05-18T09:56:12.689Z,1018.47
2018-05-18T09:57:22.434Z,1018.47
2018-05-18T09:58:31.681Z,1018.43
2018-05-18T09:59:41.240Z,1018.44
2018-05-18T10:00:51.033Z,1018.42
2018-05-18T10:02:00.524Z,1018.4
2018-05-18T10:03:09.782Z,1018.4
2018-05-18T10:04:18.984Z,1018.4
2018-05-18T10:05:28.496Z,1018.43
2018-05-18T10:06:37.223Z,1018.5
2018-05-18T10:07:46.722Z,1018.48
2018-05-18T10:08:55.914Z,1018.5
2018-05-18T10:10:05.412Z,1018.52
2018-05-18T10:11:14.907Z,1018.5
2018-05-18T10:12:24.497Z,1018.56
2018-05-18T10:13:34.384Z,1018.51
2018-05-18T10:14:43.849Z,1018.47
2018-05-18T10:15:53.430Z,1018.5
2018-05-18T10:17:03.111Z,1018.46
2018-05-18T10:18:12.601Z,1018.46
2018-05-18T10:19:22.077Z,1018.47
2018-05-18T10:20:31.285Z,1018.45
2018-05-18T10:21:40.752Z,1018.49
2018-05-18T10:22:50.286Z,1018.48
2018-05-18T10:23:59.822Z,1018.49
2018-05-18T10:25:09.860Z,1018.52
2018-05-18T10:26:19.371Z,1018.52
2018-05-18T10:27:29.227Z,1018.44
2018-05-18T10:28:38.546Z,1018.36
2018-05-18T10:29:48.457Z,1018.37
2018-05-18T10:30:57.662Z,1018.34
2018-05-18T10:32:07.502Z,1018.36
2018-05-18T10:33:16.948Z,1018.35
2018-05-18T10:34:26.133Z,1018.41
2018-05-18T10:35:35.587Z,1018.34
2018-05-18T10:36:44.757Z,1018.38
2018-05-18T10:37:53.686Z,1018.33
2018-05-18T10:39:03.124Z,1018.33
2018-05-18T10:40:12.314Z,1018.29
2018-05-18T10:41:21.242Z,1018.32
2018-05-18T10:42:30.684Z,1018.26
2018-05-18T10:43:40.160Z,1018.24
2018-05-18T10:44:49.367Z,1018.28
2018-05-18T10:45:59.253Z,1018.29
2018-05-18T10:47:08.704Z,1018.28
2018-05-18T10:48:17.938Z,1018.25
2018-05-18T10:49:27.404Z,1018.23
2018-05-18T10:50:37.392Z,1018.21
2018-05-18T10:51:46.824Z,1018.26
2018-05-18T10:52:56.085Z,1018.23
2018-05-18T10:54:05.416Z,1018.19
2018-05-18T10:55:14.883Z,1018.2
2018-05-18T10:56:24.330Z,1018.23
2018-05-18T10:57:33.775Z,1018.22
2018-05-18T10:58:43.740Z,1018.19
2018-05-18T10:59:53.420Z,1018.16
2018-05-18T11:01:02.875Z,1018.1
2018-05-18T11:02:12.588Z,1018.12
2018-05-18T11:03:22.307Z,1018.14
2018-05-18T11:04:32.061Z,1018.1
2018-05-18T11:05:40.960Z,1018.1
2018-05-18T11:06:50.712Z,1018.13
2018-05-18T11:08:00.755Z,1018.14
2018-05-18T11:09:10.473Z,1018.07
2018-05-18T11:10:20.487Z,1018.07
2018-05-18T11:11:30.000Z,1018.08
2018-05-18T11:12:39.214Z,1018.03
2018-05-18T11:13:48.654Z,1018.06
2018-05-18T11:14:58.788Z,1018.02
2018-05-18T11:16:07.736Z,1017.99
2018-05-18T11:17:17.472Z,1017.97
2018-05-18T11:18:26.952Z,1018.02
2018-05-18T11:19:36.378Z,1017.95
2018-05-18T11:20:45.812Z,1017.93
2018-05-18T11:21:54.484Z,1017.96
2018-05-18T11:23:03.665Z,1017.96
2018-05-18T11:24:13.580Z,1017.94
2018-05-18T11:25:23.025Z,1017.93
2018-05-18T11:26:32.729Z,1017.93
2018-05-18T11:27:41.907Z,1017.93
2018-05-18T11:28:52.091Z,1017.92
2018-05-18T11:30:01.776Z,1017.82
2018-05-18T11:31:11.461Z,1017.86
2018-05-18T11:32:21.428Z,1017.8
2018-05-18T11:33:31.127Z,1017.79
2018-05-18T11:34:40.316Z,1017.79
2018-05-18T11:35:50.068Z,1017.77
2018-05-18T11:36:59.524Z,1017.77
2018-05-18T11:38:08.940Z,1017.78
2018-05-18T11:39:18.149Z,1017.8
2018-05-18T11:40:27.333Z,1017.75
2018-05-18T11:41:37.029Z,1017.74
2018-05-18T11:42:46.705Z,1017.7
2018-05-18T11:43:56.162Z,1017.69
2018-05-18T11:45:05.617Z,1017.74
2018-05-18T11:46:14.769Z,1017.77
2018-05-18T11:47:24.456Z,1017.73
2018-05-18T11:48:34.128Z,1017.7
2018-05-18T11:49:43.540Z,1017.69
2018-05-18T11:50:52.743Z,1017.68
2018-05-18T11:52:02.160Z,1017.64
2018-05-18T11:53:12.157Z,1017.63
2018-05-18T11:54:21.621Z,1017.56
2018-05-18T11:55:31.589Z,1017.55
2018-05-18T11:56:42.244Z,1017.54
2018-05-18T11:57:51.915Z,1017.61
2018-05-18T11:59:01.083Z,1017.58
2018-05-18T12:00:10.251Z,1017.58
2018-05-18T12:01:19.734Z,1017.54
2018-05-18T12:02:29.355Z,1017.54
2018-05-18T12:03:38.705Z,1017.5
2018-05-18T12:04:47.946Z,1017.5
2018-05-18T12:05:57.409Z,1017.44
2018-05-18T12:07:06.836Z,1017.48
2018-05-18T12:08:16.280Z,1017.44
2018-05-18T12:09:26.132Z,1017.42
2018-05-18T12:10:35.033Z,1017.49
2018-05-18T12:11:44.470Z,1017.54
2018-05-18T12:12:53.914Z,1017.52
2018-05-18T12:14:03.410Z,1017.44
2018-05-18T12:15:12.809Z,1017.48
2018-05-18T12:16:22.514Z,1017.38
2018-05-18T12:17:32.221Z,1017.44
2018-05-18T12:18:41.913Z,1017.41
2018-05-18T12:19:50.886Z,1017.36
2018-05-18T12:21:00.119Z,1017.47
2018-05-18T12:22:09.588Z,1017.5
2018-05-18T12:23:19.599Z,1017.47
2018-05-18T12:24:28.822Z,1017.41
2018-05-18T12:25:37.778Z,1017.45
2018-05-18T12:26:47.003Z,1017.39
2018-05-18T12:27:56.461Z,1017.35
2018-05-18T12:29:05.375Z,1017.36
2018-05-18T12:30:15.311Z,1017.41
2018-05-18T12:31:24.790Z,1017.35
2018-05-18T12:32:34.818Z,1017.4
2018-05-18T12:33:44.320Z,1017.35
2018-05-18T12:34:53.778Z,1017.34
2018-05-18T12:36:02.512Z,1017.26
2018-05-18T12:37:11.983Z,1017.28
2018-05-18T12:38:21.521Z,1017.24
2018-05-18T12:39:31.605Z,1017.28
2018-05-18T12:40:40.839Z,1017.25
2018-05-18T12:41:50.132Z,1017.25
2018-05-18T12:42:59.688Z,1017.25
2018-05-18T12:44:09.263Z,1017.26
2018-05-18T12:45:18.720Z,1017.31
2018-05-18T12:46:27.673Z,1017.26
2018-05-18T12:47:37.012Z,1017.26
2018-05-18T12:48:46.754Z,1017.19
2018-05-18T12:49:55.971Z,1017.21
2018-05-18T12:51:05.693Z,1017.16
2018-05-18T12:52:15.561Z,1017.12
2018-05-18T12:53:25.050Z,1017.02
2018-05-18T12:54:34.523Z,1017.03
2018-05-18T12:55:44.054Z,1017.14
2018-05-18T12:56:53.945Z,1017.07
2018-05-18T12:58:02.914Z,1017.06
2018-05-18T12:59:12.465Z,1017.08
2018-05-18T13:00:21.982Z,1017.12
2018-05-18T13:01:31.454Z,1017.14
2018-05-18T13:02:41.169Z,1017.07
2018-05-18T13:03:50.675Z,1017.06
2018-05-18T13:05:00.423Z,1017.11
2018-05-18T13:06:09.994Z,1017.05
2018-05-18T13:07:19.461Z,1017.01
2018-05-18T13:08:28.913Z,1017.02
2018-05-18T13:09:38.341Z,1016.98
2018-05-18T13:10:48.108Z,1017.01
2018-05-18T13:11:57.734Z,1016.99
2018-05-18T13:13:06.737Z,1017.07
2018-05-18T13:14:16.199Z,1017.01
2018-05-18T13:15:25.912Z,1017.05
2018-05-18T13:16:35.669Z,1016.98
2018-05-18T13:17:45.195Z,1017
2018-05-18T13:18:54.623Z,1016.97
2018-05-18T13:20:03.554Z,1017.03
2018-05-18T13:21:13.518Z,1017
2018-05-18T13:22:22.433Z,1017.02
2018-05-18T13:23:31.887Z,1017.02
2018-05-18T13:24:41.857Z,1016.98
2018-05-18T13:25:51.720Z,1017.01
2018-05-18T13:27:00.887Z,1017.01
2018-05-18T13:28:10.186Z,1017.02
2018-05-18T13:29:19.919Z,1017.01
2018-05-18T13:30:29.427Z,1017.04
2018-05-18T13:31:39.700Z,1017.01
2018-05-18T13:32:49.396Z,1017.04
2018-05-18T13:33:58.896Z,1016.99
2018-05-18T13:35:08.377Z,1016.99
2018-05-18T13:36:18.372Z,1016.91
2018-05-18T13:37:27.843Z,1016.92
2018-05-18T13:38:37.387Z,1016.96
2018-05-18T13:39:47.334Z,1016.9
2018-05-18T13:40:56.503Z,1016.91
2018-05-18T13:42:05.433Z,1016.95
2018-05-18T13:43:14.919Z,1016.94
2018-05-18T13:44:24.438Z,1016.93
2018-05-18T13:45:34.072Z,1016.95
2018-05-18T13:46:44.036Z,1016.84
2018-05-18T13:47:53.496Z,1016.87
2018-05-18T13:49:02.214Z,1016.86
2018-05-18T13:50:11.907Z,1016.83
2018-05-18T13:51:21.603Z,1016.87
2018-05-18T13:52:31.132Z,1016.89
2018-05-18T13:53:41.093Z,1016.87
2018-05-18T13:54:50.804Z,1016.83
2018-05-18T13:56:00.297Z,1016.85
2018-05-18T13:57:09.781Z,1016.83
2018-05-18T13:58:19.828Z,1016.82
2018-05-18T13:59:29.252Z,1016.8
2018-05-18T14:00:38.935Z,1016.78
2018-05-18T14:01:48.143Z,1016.82
2018-05-18T14:02:57.958Z,1016.82
2018-05-18T14:04:07.685Z,1016.78